createdAt,value
2023-02-24T00:02:05.560Z,20.43
2023-02-24T00:04:35.789Z,18.90
2023-02-24T00:07:02.971Z,18.17
2023-02-24T00:09:31.123Z,16.33
2023-02-24T00:12:10.153Z,22.33
2023-02-24T00:14:39.552Z,20.80
2023-02-24T00:17:09.830Z,19.43
2023-02-24T00:19:37.783Z,25.80
2023-02-24T00:22:07.177Z,25.70
2023-02-24T00:24:33.925Z,29.70
2023-02-24T00:27:02.346Z,30.50
2023-02-24T00:29:30.050Z,29.63
2023-02-24T00:32:01.736Z,31.33
2023-02-24T00:34:31.033Z,28.27
2023-02-24T00:36:58.165Z,27.70
2023-02-24T00:39:33.495Z,26.43
2023-02-24T00:42:06.727Z,26.07
2023-02-24T00:44:44.955Z,19.67
2023-02-24T00:47:12.592Z,20.17
2023-02-24T00:49:42.431Z,22.50
2023-02-24T00:52:15.511Z,19.67
2023-02-24T00:54:44.552Z,25.73
2023-02-24T00:57:11.502Z,20.20
2023-02-24T00:59:39.368Z,22.70
2023-02-24T01:02:11.421Z,21.90
2023-02-24T01:04:38.721Z,21.27
2023-02-24T01:07:10.738Z,26.97
2023-02-24T01:09:39.587Z,21.10
2023-02-24T01:12:38.240Z,24.10
2023-02-24T01:15:11.213Z,25.63
2023-02-24T01:17:39.264Z,20.73
2023-02-24T01:20:18.245Z,24.90
2023-02-24T01:22:51.234Z,24.20
2023-02-24T01:25:20.283Z,26.03
2023-02-24T01:27:47.125Z,21.67
2023-02-24T01:30:15.862Z,21.33
2023-02-24T01:32:43.771Z,21.70
2023-02-24T01:35:12.078Z,22.00
2023-02-24T01:37:39.250Z,18.23
2023-02-24T01:40:20.548Z,21.90
2023-02-24T01:42:47.690Z,17.83
2023-02-24T01:45:21.447Z,18.30
2023-02-24T01:47:49.140Z,20.83
2023-02-24T01:50:17.751Z,19.07
2023-02-24T01:52:49.092Z,20.93
2023-02-24T01:55:40.758Z,19.80
2023-02-24T01:58:15.507Z,21.20
2023-02-24T02:00:46.801Z,27.83
2023-02-24T02:03:35.182Z,21.90
2023-02-24T02:06:11.128Z,20.80
2023-02-24T02:08:40.852Z,25.57
2023-02-24T02:11:11.376Z,23.20
2023-02-24T02:13:43.166Z,23.97
2023-02-24T02:16:34.837Z,22.10
2023-02-24T02:19:25.666Z,25.23
2023-02-24T02:22:05.880Z,23.90
2023-02-24T02:25:07.229Z,27.43
2023-02-24T02:27:45.387Z,28.57
2023-02-24T02:30:15.001Z,25.53
2023-02-24T02:32:52.530Z,26.30
2023-02-24T02:35:26.550Z,29.53
2023-02-24T02:38:04.158Z,28.03
2023-02-24T02:40:52.507Z,24.90
2023-02-24T02:43:39.630Z,24.23
2023-02-24T02:46:34.658Z,20.30
2023-02-24T02:49:17.973Z,20.50
2023-02-24T02:51:53.933Z,28.17
2023-02-24T02:54:32.627Z,21.10
2023-02-24T02:57:08.606Z,24.20
2023-02-24T02:59:41.641Z,26.63
2023-02-24T03:02:13.118Z,21.73
2023-02-24T03:04:44.877Z,22.10
2023-02-24T03:07:16.725Z,23.50
2023-02-24T03:09:50.541Z,21.37
2023-02-24T03:12:22.305Z,26.10
2023-02-24T03:14:56.725Z,25.30
2023-02-24T03:17:26.814Z,27.97
2023-02-24T03:20:01.760Z,25.77
2023-02-24T03:22:35.997Z,24.43
2023-02-24T03:25:05.178Z,22.43
2023-02-24T03:27:49.572Z,28.10
2023-02-24T03:30:26.971Z,21.77
2023-02-24T03:33:05.237Z,24.47
2023-02-24T03:35:42.071Z,25.27
2023-02-24T03:38:10.167Z,25.83
2023-02-24T03:40:39.291Z,25.70
2023-02-24T03:43:16.914Z,24.63
2023-02-24T03:45:46.381Z,28.23
2023-02-24T03:48:13.305Z,30.40
2023-02-24T03:50:42.271Z,23.47
2023-02-24T03:53:51.912Z,23.63
2023-02-24T03:56:45.891Z,25.90
2023-02-24T03:59:33.423Z,21.87
2023-02-24T04:02:17.699Z,26.90
2023-02-24T04:05:24.035Z,22.90
2023-02-24T04:08:08.669Z,25.47
2023-02-24T04:10:53.803Z,22.87
2023-02-24T04:13:36.144Z,25.67
2023-02-24T04:16:36.361Z,23.47
2023-02-24T04:19:09.178Z,24.87
2023-02-24T04:21:39.998Z,32.27
2023-02-24T04:24:11.926Z,27.30
2023-02-24T04:26:40.591Z,24.67
2023-02-24T04:29:09.785Z,20.03
2023-02-24T04:31:39.021Z,29.97
2023-02-24T04:34:09.456Z,24.30
2023-02-24T04:36:38.642Z,26.60
2023-02-24T04:39:07.158Z,28.07
2023-02-24T04:41:35.795Z,30.00
2023-02-24T04:44:02.391Z,25.30
2023-02-24T04:46:32.361Z,25.37
2023-02-24T04:49:00.377Z,29.27
2023-02-24T04:51:27.000Z,26.57
2023-02-24T04:53:55.399Z,25.40
2023-02-24T04:56:22.445Z,28.33
2023-02-24T04:58:49.112Z,23.93
2023-02-24T05:01:15.706Z,30.80
2023-02-24T05:03:43.331Z,25.70
2023-02-24T05:06:16.111Z,23.13
2023-02-24T05:08:43.620Z,31.90
2023-02-24T05:11:16.187Z,28.43
2023-02-24T05:13:45.812Z,28.33
2023-02-24T05:16:14.191Z,23.37
2023-02-24T05:18:40.919Z,29.00
2023-02-24T05:21:29.138Z,31.40
2023-02-24T05:23:58.284Z,24.53
2023-02-24T05:26:25.804Z,43.83
2023-02-24T05:28:56.423Z,37.37
2023-02-24T05:31:28.934Z,28.30
2023-02-24T05:34:01.432Z,38.07
2023-02-24T05:36:32.393Z,42.80
2023-02-24T05:38:59.542Z,35.10
2023-02-24T05:41:35.634Z,27.67
2023-02-24T05:44:09.243Z,28.07
2023-02-24T05:46:39.699Z,21.63
2023-02-24T05:49:14.212Z,27.63
2023-02-24T05:51:43.496Z,24.40
2023-02-24T05:54:13.333Z,34.67
2023-02-24T05:56:44.769Z,26.67
2023-02-24T05:59:18.147Z,25.40
2023-02-24T06:01:47.647Z,27.67
2023-02-24T06:04:33.547Z,24.20
2023-02-24T06:07:03.677Z,25.87
2023-02-24T06:09:30.273Z,24.73
2023-02-24T06:11:56.881Z,25.33
2023-02-24T06:14:24.526Z,28.73
2023-02-24T06:16:51.360Z,29.50
2023-02-24T06:19:17.910Z,26.43
2023-02-24T06:21:44.507Z,28.57
2023-02-24T06:24:18.279Z,29.80
2023-02-24T06:26:45.815Z,27.13
2023-02-24T06:29:14.853Z,27.77
2023-02-24T06:31:43.162Z,24.87
2023-02-24T06:34:10.887Z,27.90
2023-02-24T06:36:38.113Z,34.07
2023-02-24T06:39:08.209Z,35.20
2023-02-24T06:41:37.888Z,39.13
2023-02-24T06:44:04.712Z,29.87
2023-02-24T06:46:31.948Z,33.63
2023-02-24T06:48:58.617Z,36.97
2023-02-24T06:51:30.057Z,39.73
2023-02-24T06:53:59.398Z,28.47
2023-02-24T06:56:27.597Z,37.60
2023-02-24T06:58:56.329Z,26.10
2023-02-24T07:01:26.119Z,28.23
2023-02-24T07:04:07.366Z,30.40
2023-02-24T07:06:38.186Z,33.80
2023-02-24T07:09:10.757Z,27.00
2023-02-24T07:11:41.437Z,29.13
2023-02-24T07:14:11.224Z,29.63
2023-02-24T07:16:41.471Z,25.27
2023-02-24T07:19:13.836Z,30.57
2023-02-24T07:21:59.725Z,28.10
2023-02-24T07:24:36.119Z,32.20
2023-02-24T07:27:10.878Z,29.37
2023-02-24T07:29:38.380Z,30.07
2023-02-24T07:32:09.073Z,27.90
2023-02-24T07:34:39.928Z,35.50
2023-02-24T07:37:08.495Z,34.73
2023-02-24T07:39:37.032Z,42.43
2023-02-24T07:42:05.420Z,36.00
2023-02-24T07:44:44.563Z,30.73
2023-02-24T07:47:11.249Z,36.00
2023-02-24T07:49:40.910Z,46.97
2023-02-24T07:52:08.405Z,37.10
2023-02-24T07:54:35.050Z,34.83
2023-02-24T07:57:01.726Z,29.03
2023-02-24T07:59:32.405Z,26.67
2023-02-24T08:02:00.528Z,34.63
2023-02-24T08:04:30.001Z,32.70
2023-02-24T08:06:58.818Z,31.10
2023-02-24T08:09:45.902Z,30.30
2023-02-24T08:12:18.302Z,29.77
2023-02-24T08:14:50.731Z,32.00
2023-02-24T08:17:26.521Z,30.20
2023-02-24T08:20:13.021Z,28.00
2023-02-24T08:22:46.589Z,30.43
2023-02-24T08:25:18.313Z,31.43
2023-02-24T08:28:05.997Z,26.40
2023-02-24T08:30:44.897Z,33.00
2023-02-24T08:33:18.353Z,33.13
2023-02-24T08:35:45.401Z,32.00
2023-02-24T08:38:18.571Z,33.63
2023-02-24T08:40:51.551Z,31.87
2023-02-24T08:43:30.101Z,32.40
2023-02-24T08:46:18.699Z,30.63
2023-02-24T08:48:55.448Z,26.80
2023-02-24T08:51:29.719Z,18.00
2023-02-24T08:53:59.617Z,33.47
2023-02-24T08:56:29.635Z,26.57
2023-02-24T08:59:05.698Z,25.93
2023-02-24T09:01:37.164Z,28.27
2023-02-24T09:04:13.084Z,24.40
2023-02-24T09:06:47.563Z,28.87
2023-02-24T09:09:17.624Z,24.97
2023-02-24T09:11:56.351Z,27.33
2023-02-24T09:14:36.355Z,24.87
2023-02-24T09:17:06.457Z,24.63
2023-02-24T09:19:46.554Z,26.60
2023-02-24T09:22:57.732Z,24.90
2023-02-24T09:25:26.043Z,25.00
2023-02-24T09:28:17.571Z,23.10
2023-02-24T09:30:51.338Z,19.33
2023-02-24T09:33:27.449Z,23.33
2023-02-24T09:36:10.821Z,30.00
2023-02-24T09:38:57.309Z,17.50
2023-02-24T09:41:33.432Z,15.70
2023-02-24T09:44:07.620Z,18.97
2023-02-24T09:46:40.826Z,19.43
2023-02-24T09:49:17.214Z,22.37
2023-02-24T09:51:44.807Z,19.07
2023-02-24T09:54:18.841Z,20.30
2023-02-24T09:57:08.358Z,18.00
2023-02-24T10:00:16.247Z,20.90
2023-02-24T10:03:00.166Z,20.13
2023-02-24T10:05:59.357Z,21.87
2023-02-24T10:08:38.234Z,19.47
2023-02-24T10:11:08.360Z,15.80
2023-02-24T10:13:52.995Z,17.30
2023-02-24T10:16:24.061Z,20.67
2023-02-24T10:19:17.651Z,18.53
2023-02-24T10:22:23.046Z,17.57
2023-02-24T10:25:01.450Z,14.80
2023-02-24T10:28:06.875Z,20.60
2023-02-24T10:31:10.255Z,19.33
2023-02-24T10:33:46.348Z,14.97
2023-02-24T10:36:18.170Z,17.27
2023-02-24T10:38:46.033Z,14.53
2023-02-24T10:41:14.701Z,15.63
2023-02-24T10:43:53.875Z,18.70
2023-02-24T10:46:39.993Z,15.93
2023-02-24T10:49:15.718Z,13.93
2023-02-24T10:51:47.690Z,12.07
2023-02-24T10:54:34.011Z,15.80
2023-02-24T10:57:29.637Z,15.87
2023-02-24T11:00:17.754Z,17.90
2023-02-24T11:02:57.636Z,11.50
2023-02-24T11:05:37.951Z,12.03
2023-02-24T11:08:07.767Z,11.77
2023-02-24T11:10:52.948Z,16.63
2023-02-24T11:13:39.320Z,12.83
2023-02-24T11:16:27.577Z,14.90
2023-02-24T11:18:55.715Z,15.20
2023-02-24T11:21:26.185Z,11.57
2023-02-24T11:24:05.441Z,10.00
2023-02-24T11:26:36.979Z,13.00
2023-02-24T11:29:17.463Z,10.43
2023-02-24T11:32:09.086Z,12.10
2023-02-24T11:34:49.535Z,12.63
2023-02-24T11:37:43.413Z,11.30
2023-02-24T11:40:10.568Z,10.37
2023-02-24T11:43:07.426Z,11.23
2023-02-24T11:45:47.241Z,6.83
2023-02-24T11:48:25.228Z,12.37
2023-02-24T11:51:13.834Z,11.23
2023-02-24T11:53:51.480Z,10.93
2023-02-24T11:56:20.926Z,11.23
2023-02-24T11:59:06.276Z,9.57
2023-02-24T12:01:40.997Z,13.03
2023-02-24T12:04:10.600Z,8.07
2023-02-24T12:06:53.484Z,9.00
2023-02-24T12:09:24.431Z,11.70
2023-02-24T12:12:00.935Z,12.03
2023-02-24T12:14:34.647Z,7.53
2023-02-24T12:17:35.050Z,10.50
2023-02-24T12:20:47.683Z,12.43
2023-02-24T12:23:34.534Z,11.87
2023-02-24T12:26:25.557Z,11.70
2023-02-24T12:29:24.580Z,16.17
2023-02-24T12:32:01.785Z,10.03
2023-02-24T12:34:31.546Z,10.93
2023-02-24T12:37:13.098Z,10.17
2023-02-24T12:39:56.422Z,8.70
2023-02-24T12:42:46.751Z,11.87
2023-02-24T12:45:22.028Z,10.70
2023-02-24T12:48:19.036Z,9.23
2023-02-24T12:50:59.385Z,12.90
2023-02-24T12:53:29.068Z,11.67
2023-02-24T12:56:15.838Z,8.20
2023-02-24T12:58:45.990Z,10.63
2023-02-24T13:01:32.685Z,12.80
2023-02-24T13:04:21.918Z,8.53
2023-02-24T13:07:07.248Z,9.30
2023-02-24T13:09:38.801Z,12.03
2023-02-24T13:12:43.388Z,11.70
2023-02-24T13:15:21.967Z,11.40
2023-02-24T13:17:51.832Z,7.77
2023-02-24T13:20:38.477Z,11.83
2023-02-24T13:23:20.186Z,11.63
2023-02-24T13:25:55.583Z,9.57
2023-02-24T13:28:33.316Z,7.30
2023-02-24T13:31:11.802Z,11.97
2023-02-24T13:33:43.508Z,9.97
2023-02-24T13:36:23.681Z,7.53
2023-02-24T13:39:03.793Z,10.00
2023-02-24T13:41:30.361Z,12.73
2023-02-24T13:43:57.935Z,10.90
2023-02-24T13:46:28.326Z,10.00
2023-02-24T13:49:02.999Z,11.93
2023-02-24T13:51:41.963Z,9.20
2023-02-24T13:54:08.795Z,14.20
2023-02-24T13:56:56.301Z,15.87
2023-02-24T13:59:29.160Z,9.13
2023-02-24T14:01:58.855Z,9.40
2023-02-24T14:04:31.785Z,9.37
2023-02-24T14:07:03.643Z,8.37
2023-02-24T14:09:46.360Z,11.70
2023-02-24T14:12:18.470Z,10.10
2023-02-24T14:14:46.488Z,9.53
2023-02-24T14:17:26.338Z,14.20
2023-02-24T14:19:52.910Z,11.43
2023-02-24T14:22:21.373Z,13.40
2023-02-24T14:24:48.404Z,14.00
2023-02-24T14:27:24.427Z,12.50
2023-02-24T14:29:52.817Z,10.83
2023-02-24T14:32:22.394Z,11.80
2023-02-24T14:34:50.021Z,11.07
2023-02-24T14:37:17.388Z,14.67
2023-02-24T14:39:55.178Z,13.93
2023-02-24T14:42:22.213Z,14.33
2023-02-24T14:44:59.492Z,12.23
2023-02-24T14:47:28.879Z,11.73
2023-02-24T14:50:02.336Z,12.03
2023-02-24T14:52:35.233Z,10.73
2023-02-24T14:55:04.747Z,16.90
2023-02-24T14:57:38.180Z,13.10
2023-02-24T15:00:30.418Z,10.37
2023-02-24T15:03:17.454Z,10.40
2023-02-24T15:05:48.579Z,8.50
2023-02-24T15:08:27.285Z,12.33
2023-02-24T15:10:54.063Z,14.13
2023-02-24T15:13:43.473Z,15.07
2023-02-24T15:16:37.360Z,10.63
2023-02-24T15:19:04.618Z,11.17
2023-02-24T15:21:40.462Z,10.67
2023-02-24T15:24:25.063Z,9.47
2023-02-24T15:26:57.496Z,9.20
2023-02-24T15:29:27.652Z,10.73
2023-02-24T15:31:56.722Z,11.47
2023-02-24T15:34:29.740Z,10.33
2023-02-24T15:37:01.195Z,13.03
2023-02-24T15:39:31.261Z,16.60
2023-02-24T15:42:17.953Z,15.37
2023-02-24T15:44:53.665Z,11.20
2023-02-24T15:47:32.479Z,15.30
2023-02-24T15:49:59.358Z,12.93
2023-02-24T15:52:28.649Z,19.03
2023-02-24T15:54:57.884Z,17.00
2023-02-24T15:57:25.150Z,13.70
2023-02-24T15:59:51.914Z,15.07
2023-02-24T16:02:21.681Z,9.20
2023-02-24T16:04:49.699Z,11.70
2023-02-24T16:07:20.820Z,8.67
2023-02-24T16:09:49.745Z,11.80
2023-02-24T16:12:24.063Z,14.13
2023-02-24T16:14:55.798Z,15.47
2023-02-24T16:17:33.081Z,14.17
2023-02-24T16:20:00.448Z,11.47
2023-02-24T16:22:28.310Z,12.33
2023-02-24T16:24:55.075Z,11.37
2023-02-24T16:27:23.448Z,13.27
2023-02-24T16:29:51.086Z,16.07
2023-02-24T16:32:25.741Z,13.80
2023-02-24T16:34:53.179Z,14.07
2023-02-24T16:37:22.876Z,9.53
2023-02-24T16:39:49.777Z,14.33
2023-02-24T16:42:17.522Z,13.30
2023-02-24T16:44:44.669Z,11.30
2023-02-24T16:47:20.515Z,12.20
2023-02-24T16:49:47.342Z,12.63
2023-02-24T16:52:18.996Z,11.23
2023-02-24T16:54:47.667Z,12.23
2023-02-24T16:57:14.258Z,15.33
2023-02-24T16:59:40.924Z,13.17
2023-02-24T17:02:18.128Z,12.70
2023-02-24T17:04:44.718Z,11.20
2023-02-24T17:07:11.375Z,13.40
2023-02-24T17:09:37.935Z,10.07
2023-02-24T17:12:04.902Z,12.93
2023-02-24T17:14:31.528Z,14.23
2023-02-24T17:17:00.990Z,12.47
2023-02-24T17:19:27.631Z,14.90
2023-02-24T17:21:54.323Z,11.30
2023-02-24T17:24:21.034Z,15.87
2023-02-24T17:26:47.740Z,18.23
2023-02-24T17:29:14.770Z,13.80
2023-02-24T17:31:42.262Z,12.60
2023-02-24T17:34:09.941Z,11.13
2023-02-24T17:36:36.535Z,10.13
2023-02-24T17:39:03.252Z,16.87
2023-02-24T17:41:29.988Z,12.73
2023-02-24T17:43:56.597Z,12.90
2023-02-24T17:46:23.507Z,11.20
2023-02-24T17:48:50.319Z,11.37
2023-02-24T17:51:18.808Z,13.63
2023-02-24T17:53:45.842Z,12.50
2023-02-24T17:56:12.651Z,11.90
2023-02-24T17:58:40.067Z,13.70
2023-02-24T18:01:07.528Z,11.97
2023-02-24T18:03:36.175Z,11.10
2023-02-24T18:06:06.391Z,16.23
2023-02-24T18:08:34.362Z,13.93
2023-02-24T18:11:01.369Z,12.67
2023-02-24T18:13:30.250Z,12.87
2023-02-24T18:15:57.525Z,13.20
2023-02-24T18:18:25.484Z,11.50
2023-02-24T18:20:52.298Z,14.80
2023-02-24T18:23:19.458Z,15.47
2023-02-24T18:25:46.075Z,13.43
2023-02-24T18:28:12.678Z,11.90
2023-02-24T18:30:39.903Z,10.13
2023-02-24T18:33:06.749Z,13.10
2023-02-24T18:35:34.064Z,13.33
2023-02-24T18:38:00.729Z,11.70
2023-02-24T18:40:28.007Z,10.17
2023-02-24T18:42:55.454Z,11.90
2023-02-24T18:45:23.943Z,10.83
2023-02-24T18:47:51.558Z,11.80
2023-02-24T18:50:18.968Z,9.40
2023-02-24T18:52:45.618Z,12.30
2023-02-24T18:55:12.210Z,10.07
2023-02-24T18:57:40.144Z,11.33
2023-02-24T19:00:07.377Z,14.07
2023-02-24T19:02:34.057Z,15.00
2023-02-24T19:05:00.701Z,18.57
2023-02-24T19:07:27.404Z,18.50
2023-02-24T19:09:54.118Z,16.87
2023-02-24T19:12:21.402Z,19.53
2023-02-24T19:14:52.252Z,15.80
2023-02-24T19:17:20.201Z,19.07
2023-02-24T19:19:46.831Z,22.33
2023-02-24T19:22:13.523Z,17.33
2023-02-24T19:24:40.233Z,16.70
2023-02-24T19:27:08.682Z,15.77
2023-02-24T19:29:35.637Z,16.00
2023-02-24T19:32:02.557Z,19.93
2023-02-24T19:34:29.354Z,12.47
2023-02-24T19:36:55.968Z,14.37
2023-02-24T19:39:22.690Z,13.70
2023-02-24T19:41:49.887Z,18.13
2023-02-24T19:44:16.904Z,12.60
2023-02-24T19:46:43.834Z,12.03
2023-02-24T19:49:10.509Z,10.17
2023-02-24T19:51:37.257Z,7.60
2023-02-24T19:54:05.907Z,11.23
2023-02-24T19:56:35.518Z,8.77
2023-02-24T19:59:03.161Z,7.00
2023-02-24T20:01:30.577Z,6.90
2023-02-24T20:03:59.829Z,7.57
2023-02-24T20:06:33.946Z,4.30
2023-02-24T20:09:01.541Z,4.33
2023-02-24T20:11:29.864Z,4.30
2023-02-24T20:13:56.564Z,5.60
2023-02-24T20:16:25.261Z,6.30
2023-02-24T20:18:55.184Z,6.60
2023-02-24T20:21:21.983Z,4.70
2023-02-24T20:23:48.708Z,5.43
2023-02-24T20:26:16.352Z,5.80
2023-02-24T20:28:47.331Z,6.70
2023-02-24T20:31:18.545Z,5.40
2023-02-24T20:33:47.103Z,4.50
2023-02-24T20:36:20.330Z,4.17
2023-02-24T20:38:47.666Z,4.83
2023-02-24T20:41:15.083Z,5.40
2023-02-24T20:43:41.755Z,6.73
2023-02-24T20:46:24.687Z,6.13
2023-02-24T20:48:53.181Z,4.70
2023-02-24T20:51:20.152Z,6.60
2023-02-24T20:53:56.594Z,8.23
2023-02-24T20:56:29.111Z,6.73
2023-02-24T20:59:02.388Z,5.17
2023-02-24T21:01:30.388Z,7.33
2023-02-24T21:03:57.422Z,6.03
2023-02-24T21:06:24.971Z,6.93
2023-02-24T21:08:53.328Z,6.17
2023-02-24T21:11:21.844Z,5.17
2023-02-24T21:13:50.186Z,4.17
2023-02-24T21:16:18.239Z,3.97
2023-02-24T21:18:47.336Z,3.80
2023-02-24T21:21:15.362Z,2.83
2023-02-24T21:23:43.521Z,5.20
2023-02-24T21:26:11.156Z,2.83
2023-02-24T21:28:38.671Z,3.23
2023-02-24T21:31:11.496Z,3.50
2023-02-24T21:33:41.688Z,3.00
2023-02-24T21:36:13.587Z,2.10
2023-02-24T21:38:41.335Z,2.90
2023-02-24T21:41:13.532Z,2.63
2023-02-24T21:43:40.484Z,3.80
2023-02-24T21:46:09.105Z,2.57
2023-02-24T21:48:37.073Z,3.43
2023-02-24T21:51:06.771Z,2.20
2023-02-24T21:53:35.699Z,2.00
2023-02-24T21:56:03.715Z,2.30
2023-02-24T21:58:32.393Z,1.70
2023-02-24T22:01:07.998Z,1.73
2023-02-24T22:03:34.704Z,2.43
2023-02-24T22:06:01.586Z,2.30
2023-02-24T22:08:28.814Z,3.00
2023-02-24T22:10:59.848Z,2.27
2023-02-24T22:13:26.926Z,3.73
2023-02-24T22:15:53.831Z,3.80
2023-02-24T22:18:21.250Z,2.23
2023-02-24T22:20:48.171Z,2.40
2023-02-24T22:23:15.104Z,3.93
2023-02-24T22:25:41.728Z,2.40
2023-02-24T22:28:08.419Z,1.57
2023-02-24T22:30:35.233Z,1.50
2023-02-24T22:33:01.914Z,1.47
2023-02-24T22:35:28.537Z,1.40
2023-02-24T22:37:55.305Z,1.70
2023-02-24T22:40:21.937Z,3.07
2023-02-24T22:42:48.617Z,5.23
2023-02-24T22:45:15.394Z,2.40
2023-02-24T22:47:42.034Z,5.40
2023-02-24T22:50:09.671Z,2.07
2023-02-24T22:52:36.345Z,2.50
2023-02-24T22:55:03.022Z,2.20
2023-02-24T22:57:32.702Z,2.40
2023-02-24T22:59:59.742Z,1.80
2023-02-24T23:02:27.424Z,2.40
2023-02-24T23:04:54.073Z,2.20
2023-02-24T23:07:20.717Z,1.63
2023-02-24T23:09:52.792Z,2.20
2023-02-24T23:12:20.807Z,2.20
2023-02-24T23:14:47.469Z,1.83
2023-02-24T23:17:14.131Z,2.03
2023-02-24T23:19:40.744Z,2.00
2023-02-24T23:22:08.320Z,2.53
2023-02-24T23:24:36.104Z,2.10
2023-02-24T23:27:03.005Z,1.50
2023-02-24T23:29:30.867Z,1.80
2023-02-24T23:31:58.181Z,1.73
2023-02-24T23:34:25.156Z,1.80
2023-02-24T23:36:52.158Z,2.13
2023-02-24T23:39:23.096Z,3.00
2023-02-24T23:41:50.379Z,2.27
2023-02-24T23:44:17.019Z,2.53
2023-02-24T23:46:43.987Z,2.30
2023-02-24T23:49:10.596Z,2.03
2023-02-24T23:51:47.946Z,2.93
2023-02-24T23:54:17.024Z,3.13
2023-02-24T23:56:43.759Z,3.27
2023-02-24T23:59:10.372Z,3.70
